Time;durP1;ratioP1;P1;durP2;ratioP2;P2;SDS_P1;SDS_P2;PMS_P1;PMS_P2;Temp;Humidity;BMP_temperature;BMP_pressure;BME280_temperature;BME280_humidity;BME280_pressure;Samples;Min_cycle;Max_cycle;Signal;HPM_P1;HPM_P2
2023/07/28 00:02:05;;;;;;;0.95;0.95;;;21.70;63.90;;;;;;5053487;28;20111;-85
2023/07/28 00:04:31;;;;;;;1.25;0.85;;;21.70;63.90;;;;;;5053328;28;20044;-86
2023/07/28 00:06:57;;;;;;;1.10;1.00;;;21.70;63.80;;;;;;5052527;28;20447;-86
2023/07/28 00:09:23;;;;;;;1.08;1.08;;;21.70;63.80;;;;;;5053186;28;20044;-85
2023/07/28 00:11:48;;;;;;;1.05;0.77;;;21.70;63.80;;;;;;5053196;28;20029;-85
2023/07/28 00:14:14;;;;;;;1.67;1.00;;;21.70;63.80;;;;;;5052897;28;20048;-86
2023/07/28 00:16:40;;;;;;;1.10;0.70;;;21.70;64.50;;;;;;5052964;28;20028;-86
2023/07/28 00:19:06;;;;;;;0.85;0.82;;;21.70;64.50;;;;;;5051855;28;20025;-86
2023/07/28 00:21:32;;;;;;;1.40;1.10;;;21.70;63.80;;;;;;5052821;28;20032;-86
2023/07/28 00:23:57;;;;;;;0.80;0.80;;;21.70;63.90;;;;;;5053112;28;20029;-87
2023/07/28 00:26:23;;;;;;;1.23;0.90;;;21.70;63.80;;;;;;5052794;28;20025;-86
2023/07/28 00:28:48;;;;;;;0.80;0.80;;;21.70;63.80;;;;;;5052919;28;20480;-86
2023/07/28 00:31:14;;;;;;;0.85;0.85;;;21.60;63.80;;;;;;5052714;28;20104;-86
2023/07/28 00:33:40;;;;;;;0.93;0.73;;;21.70;63.80;;;;;;5052382;28;20032;-86
2023/07/28 00:36:05;;;;;;;1.63;0.85;;;21.70;63.80;;;;;;5052377;28;20029;-86
2023/07/28 00:38:31;;;;;;;1.25;0.98;;;21.70;63.80;;;;;;5052622;28;20027;-87
2023/07/28 00:40:57;;;;;;;0.85;0.85;;;21.60;63.80;;;;;;5052354;28;20029;-86
2023/07/28 00:43:23;;;;;;;0.98;0.90;;;21.60;63.80;;;;;;5052339;28;20036;-86
2023/07/28 00:45:49;;;;;;;0.93;0.80;;;21.70;63.90;;;;;;5052350;28;20021;-86
2023/07/28 00:48:16;;;;;;;1.52;1.05;;;21.70;64.00;;;;;;5052339;28;20028;-86
2023/07/28 00:50:44;;;;;;;1.45;0.93;;;21.60;63.90;;;;;;5052438;28;20025;-86
2023/07/28 00:53:10;;;;;;;1.15;0.95;;;21.60;63.80;;;;;;5053112;28;20095;-85
2023/07/28 00:55:37;;;;;;;1.48;0.80;;;21.60;63.80;;;;;;5052377;28;20479;-85
2023/07/28 00:58:03;;;;;;;1.17;0.82;;;21.70;63.80;;;;;;5052485;28;20070;-85
2023/07/28 01:00:29;;;;;;;1.20;0.75;;;21.60;63.90;;;;;;5052186;28;20036;-85
2023/07/28 01:02:57;;;;;;;1.08;0.93;;;21.60;63.90;;;;;;5051945;28;20017;-85
2023/07/28 01:05:31;;;;;;;1.00;0.75;;;21.70;64.00;;;;;;5052513;28;20104;-86
2023/07/28 01:08:11;;;;;;;1.42;0.73;;;21.60;64.00;;;;;;5052601;28;20148;-86
2023/07/28 01:10:38;;;;;;;;;;;21.60;64.00;;;;;;5052610;28;20050;-86
2023/07/28 01:13:04;;;;;;;1.23;0.73;;;21.60;63.80;;;;;;5052308;28;19912;-83
2023/07/28 01:15:29;;;;;;;1.02;0.93;;;21.60;63.90;;;;;;5052295;28;20041;-86
2023/07/28 01:17:55;;;;;;;1.83;1.40;;;21.60;64.00;;;;;;5052225;28;20025;-86
2023/07/28 01:20:27;;;;;;;2.30;0.82;;;21.60;63.90;;;;;;5052340;28;20029;-86
2023/07/28 01:23:07;;;;;;;1.10;1.00;;;21.60;63.90;;;;;;5052804;28;20027;-86
2023/07/28 01:26:01;;;;;;;0.98;0.85;;;21.60;63.90;;;;;;5052182;28;20108;-86
2023/07/28 01:28:28;;;;;;;2.25;1.00;;;;;;;;;;5052224;28;20151;-86
2023/07/28 01:30:53;;;;;;;2.47;1.10;;;21.60;63.30;;;;;;5052094;28;20032;-86
2023/07/28 01:33:19;;;;;;;1.45;0.80;;;21.60;63.90;;;;;;5052175;28;20174;-86
2023/07/28 01:35:45;;;;;;;1.77;0.90;;;21.60;64.00;;;;;;5051900;28;20031;-85
2023/07/28 01:38:12;;;;;;;1.13;0.90;;;21.60;63.90;;;;;;5050518;28;20053;-85
2023/07/28 01:40:37;;;;;;;1.75;1.00;;;21.60;64.00;;;;;;5051971;28;20029;-85
2023/07/28 01:43:03;;;;;;;2.13;1.08;;;21.60;64.00;;;;;;5051814;28;20028;-85
2023/07/28 01:45:29;;;;;;;1.38;1.00;;;21.60;63.90;;;;;;5050867;28;20025;-85
2023/07/28 01:47:54;;;;;;;1.42;0.93;;;21.60;64.00;;;;;;5051850;28;20480;-85
2023/07/28 01:50:20;;;;;;;1.73;1.05;;;21.60;64.00;;;;;;5052747;28;20112;-86
2023/07/28 01:52:45;;;;;;;5.53;1.70;;;21.60;64.00;;;;;;5052062;28;20021;-86
2023/07/28 01:55:11;;;;;;;1.58;1.00;;;21.60;64.00;;;;;;5051808;28;20491;-86
2023/07/28 01:57:39;;;;;;;2.70;1.20;;;21.60;64.00;;;;;;5051835;28;20071;-86
2023/07/28 02:00:05;;;;;;;2.72;1.05;;;21.60;63.90;;;;;;5051899;28;20025;-86
2023/07/28 02:02:31;;;;;;;1.48;1.10;;;21.60;64.00;;;;;;5051896;28;20033;-87
2023/07/28 02:04:57;;;;;;;3.90;1.20;;;21.60;64.00;;;;;;5051740;28;20025;-86
2023/07/28 02:07:22;;;;;;;2.88;1.45;;;21.60;64.00;;;;;;5051730;28;20032;-86
2023/07/28 02:09:48;;;;;;;2.97;1.10;;;21.60;64.00;;;;;;5051819;28;20017;-86
2023/07/28 02:12:13;;;;;;;1.48;1.00;;;21.60;64.00;;;;;;5051593;28;20025;-86
2023/07/28 02:14:39;;;;;;;3.22;1.10;;;21.60;64.00;;;;;;5054082;28;20056;-86
2023/07/28 02:17:05;;;;;;;0.85;0.85;;;21.60;64.00;;;;;;5055515;28;20048;-86
2023/07/28 02:19:31;;;;;;;1.90;1.15;;;21.60;64.00;;;;;;5055934;28;20104;-85
2023/07/28 02:21:57;;;;;;;2.30;1.15;;;21.50;63.90;;;;;;5055339;28;20511;-85
2023/07/28 02:24:22;;;;;;;1.58;0.95;;;21.60;64.00;;;;;;5055024;28;20208;-85
2023/07/28 02:26:48;;;;;;;3.85;1.35;;;21.60;64.10;;;;;;5055227;28;20049;-85
2023/07/28 02:29:13;;;;;;;1.90;1.08;;;21.50;64.00;;;;;;5055096;28;20116;-86
2023/07/28 02:31:39;;;;;;;2.50;1.27;;;21.60;64.00;;;;;;5055120;28;20017;-86
2023/07/28 02:34:05;;;;;;;1.58;1.10;;;21.60;64.10;;;;;;5054842;28;20104;-86
2023/07/28 02:36:31;;;;;;;2.22;1.38;;;21.50;64.00;;;;;;5054760;28;20044;-86
2023/07/28 02:38:57;;;;;;;4.40;1.23;;;21.60;64.00;;;;;;5054891;28;20049;-86
2023/07/28 02:41:22;;;;;;;1.80;1.10;;;21.60;64.10;;;;;;5054744;28;20078;-85
2023/07/28 02:43:48;;;;;;;2.03;1.20;;;21.50;64.00;;;;;;5053607;28;20075;-85
2023/07/28 02:46:14;;;;;;;1.40;0.93;;;21.50;64.00;;;;;;5054824;28;20463;-85
2023/07/28 02:48:39;;;;;;;1.80;1.13;;;21.60;64.00;;;;;;5055606;28;20021;-85
2023/07/28 02:51:05;;;;;;;2.50;1.10;;;21.60;64.00;;;;;;5054747;28;20067;-85
2023/07/28 02:53:30;;;;;;;2.80;1.42;;;21.50;63.90;;;;;;5054746;28;20024;-84
2023/07/28 02:55:56;;;;;;;2.70;1.40;;;21.50;64.00;;;;;;5054503;28;20044;-84
2023/07/28 02:58:23;;;;;;;2.83;1.35;;;21.60;64.10;;;;;;5053495;28;20086;-86
2023/07/28 03:00:52;;;;;;;4.30;1.52;;;21.50;64.00;;;;;;5054664;28;20029;-86
2023/07/28 03:03:17;;;;;;;1.90;1.10;;;21.50;64.10;;;;;;5054545;28;20040;-86
2023/07/28 03:05:43;;;;;;;1.67;0.93;;;21.50;64.10;;;;;;5054564;28;20025;-86
2023/07/28 03:08:08;;;;;;;3.15;1.45;;;21.50;64.20;;;;;;5054406;28;20021;-86
2023/07/28 03:10:34;;;;;;;2.67;1.20;;;21.50;64.00;;;;;;5054558;28;20369;-86
2023/07/28 03:13:00;;;;;;;2.78;1.33;;;21.50;64.00;;;;;;5054461;28;20032;-86
2023/07/28 03:15:25;;;;;;;2.38;1.20;;;21.50;64.00;;;;;;5054673;28;20067;-85
2023/07/28 03:17:53;;;;;;;3.72;1.50;;;21.30;64.70;;;;;;5054392;28;20076;-86
2023/07/28 03:20:18;;;;;;;4.25;1.35;;;21.50;64.10;;;;;;5054243;28;20025;-85
2023/07/28 03:22:44;;;;;;;2.03;1.30;;;21.50;64.10;;;;;;5054291;28;20071;-85
2023/07/28 03:25:10;;;;;;;2.08;1.08;;;21.50;64.10;;;;;;5053618;28;20039;-85
2023/07/28 03:27:35;;;;;;;3.33;1.50;;;21.50;64.10;;;;;;5054241;28;20029;-86
2023/07/28 03:30:01;;;;;;;3.42;1.27;;;21.50;64.00;;;;;;5054372;28;20025;-86
2023/07/28 03:32:27;;;;;;;2.63;1.38;;;21.50;64.10;;;;;;5053846;28;20464;-86
2023/07/28 03:34:53;;;;;;;2.67;1.27;;;21.50;64.20;;;;;;5053819;28;20075;-86
2023/07/28 03:37:19;;;;;;;2.47;1.23;;;21.50;64.20;;;;;;5054173;28;20033;-86
2023/07/28 03:39:44;;;;;;;2.40;1.33;;;21.50;64.20;;;;;;5053907;28;20357;-86
2023/07/28 03:42:10;;;;;;;3.33;1.30;;;21.50;64.20;;;;;;5053773;28;20025;-86
2023/07/28 03:44:41;;;;;;;2.53;1.20;;;21.50;64.20;;;;;;5054268;28;20025;-86
2023/07/28 03:47:07;;;;;;;2.97;1.92;;;21.50;64.20;;;;;;5053825;28;20399;-85
2023/07/28 03:49:32;;;;;;;3.33;1.38;;;21.50;64.20;;;;;;5053527;28;20025;-85
2023/07/28 03:51:58;;;;;;;4.35;1.60;;;21.50;65.00;;;;;;5053497;28;20025;-85
2023/07/28 03:54:24;;;;;;;3.28;1.33;;;21.50;64.20;;;;;;5053594;28;20021;-86
2023/07/28 03:56:49;;;;;;;3.55;1.55;;;22.30;64.80;;;;;;5053556;28;20106;-76
2023/07/28 03:59:15;;;;;;;2.65;1.25;;;21.50;64.30;;;;;;5053419;28;20491;-75
2023/07/28 04:01:41;;;;;;;2.83;1.55;;;21.50;64.30;;;;;;5053520;28;20032;-76
2023/07/28 04:04:07;;;;;;;2.75;1.08;;;21.50;64.30;;;;;;5053281;28;20143;-76
2023/07/28 04:06:46;;;;;;;2.50;1.20;;;21.50;64.30;;;;;;5053133;28;20028;-76
2023/07/28 04:09:13;;;;;;;2.35;1.10;;;21.50;64.30;;;;;;5053434;28;20025;-76
2023/07/28 04:11:39;;;;;;;1.90;1.20;;;21.50;64.20;;;;;;5053155;28;20479;-76
2023/07/28 04:14:07;;;;;;;2.13;1.27;;;21.50;64.30;;;;;;5053351;28;20053;-76
2023/07/28 04:16:33;;;;;;;2.50;1.17;;;21.50;64.30;;;;;;5052684;28;20033;-76
2023/07/28 04:18:59;;;;;;;3.28;1.40;;;21.50;64.40;;;;;;5053162;28;20430;-76
2023/07/28 04:21:25;;;;;;;3.83;1.40;;;21.50;64.20;;;;;;5052981;28;20021;-77
2023/07/28 04:23:51;;;;;;;2.90;1.48;;;21.50;64.20;;;;;;5054283;28;20021;-77
2023/07/28 04:26:17;;;;;;;2.10;1.13;;;21.50;64.20;;;;;;5053361;28;20051;-77
2023/07/28 04:28:44;;;;;;;2.03;1.30;;;21.50;64.20;;;;;;5052967;28;20021;-77
2023/07/28 04:31:11;;;;;;;3.67;1.58;;;21.50;64.20;;;;;;5054338;28;20029;-76
2023/07/28 04:33:41;;;;;;;3.40;1.33;;;21.50;64.10;;;;;;5052807;28;20383;-78
2023/07/28 04:36:06;;;;;;;3.25;1.15;;;21.50;64.20;;;;;;5051716;28;20086;-75
2023/07/28 04:38:32;;;;;;;3.00;1.05;;;21.50;64.20;;;;;;5052470;28;20115;-76
2023/07/28 04:40:58;;;;;;;3.28;1.52;;;21.50;64.20;;;;;;5053162;28;20114;-89
2023/07/28 04:43:23;;;;;;;2.05;1.20;;;21.50;64.30;;;;;;5053036;28;20028;-89
2023/07/28 04:45:49;;;;;;;3.17;1.63;;;21.40;84.20;;;;;;5052611;28;20384;-82
2023/07/28 04:48:14;;;;;;;3.28;1.60;;;21.70;84.10;;;;;;5052448;28;20029;-78
2023/07/28 04:50:40;;;;;;;2.30;1.50;;;21.40;64.30;;;;;;5052318;28;20052;-76
2023/07/28 04:53:06;;;;;;;3.20;1.33;;;21.50;64.30;;;;;;5056220;28;20045;-76
2023/07/28 04:55:31;;;;;;;3.50;1.42;;;21.40;64.30;;;;;;5052219;28;20221;-77
2023/07/28 04:57:57;;;;;;;2.05;1.15;;;21.50;64.30;;;;;;5052115;28;20021;-74
2023/07/28 05:00:24;;;;;;;3.95;1.20;;;;;;;;;;5052367;28;20505;-82
2023/07/28 05:02:50;;;;;;;5.28;1.60;;;21.50;63.80;;;;;;5052471;28;20031;-78
2023/07/28 05:05:16;;;;;;;3.83;1.55;;;21.40;64.40;;;;;;5052080;28;20033;-77
2023/07/28 05:07:42;;;;;;;4.40;1.30;;;21.50;64.40;;;;;;5052331;28;20035;-78
2023/07/28 05:10:09;;;;;;;3.20;1.40;;;21.50;64.30;;;;;;5052765;28;20021;-80
2023/07/28 05:12:34;;;;;;;1.80;1.40;;;21.50;64.30;;;;;;5050806;28;20021;-76
2023/07/28 05:15:00;;;;;;;3.05;1.58;;;21.50;64.40;;;;;;5051629;28;20049;-77
2023/07/28 05:17:26;;;;;;;4.03;2.08;;;21.50;64.50;;;;;;5052088;28;20025;-77
2023/07/28 05:19:51;;;;;;;5.68;1.80;;;21.50;64.60;;;;;;5052165;28;20480;-79
2023/07/28 05:22:17;;;;;;;5.03;1.85;;;21.50;64.50;;;;;;5052788;28;20025;-80
2023/07/28 05:24:44;;;;;;;2.58;1.35;;;21.50;64.80;;;;;;5050782;28;20088;-78
2023/07/28 05:27:10;;;;;;;4.32;2.20;;;21.50;64.70;;;;;;5050733;28;20028;-83
2023/07/28 05:29:36;;;;;;;4.63;1.75;;;21.50;64.60;;;;;;5052060;28;20525;-81
2023/07/28 05:32:02;;;;;;;5.45;1.85;;;21.50;64.60;;;;;;5051857;28;20068;-78
2023/07/28 05:34:28;;;;;;;3.83;1.88;;;21.60;64.80;;;;;;5052000;28;20124;-80
2023/07/28 05:36:53;;;;;;;4.15;1.92;;;21.50;65.40;;;;;;5050440;28;20041;-82
2023/07/28 05:39:19;;;;;;;4.68;1.60;;;21.60;64.90;;;;;;5051919;28;20025;-81
2023/07/28 05:41:45;;;;;;;7.05;1.90;;;21.50;64.80;;;;;;5052019;28;20021;-82
2023/07/28 05:44:11;;;;;;;4.97;2.10;;;21.50;65.10;;;;;;5052671;28;20021;-88
2023/07/28 05:46:37;;;;;;;4.68;1.90;;;21.60;65.20;;;;;;5052086;28;20035;-77
2023/07/28 05:49:04;;;;;;;5.43;2.38;;;21.50;65.20;;;;;;5055644;28;20100;-78
2023/07/28 05:51:30;;;;;;;5.57;2.30;;;21.50;65.20;;;;;;5056078;28;20070;-79
2023/07/28 05:53:56;;;;;;;8.23;2.97;;;21.50;65.30;;;;;;5055866;28;20100;-79
2023/07/28 05:56:22;;;;;;;4.28;2.20;;;21.50;65.50;;;;;;5056021;28;20048;-80
2023/07/28 05:58:49;;;;;;;6.68;2.55;;;21.60;65.60;;;;;;5055876;28;20025;-80
2023/07/28 06:01:15;;;;;;;5.88;2.63;;;21.40;85.10;;;;;;5055624;28;20104;-80
2023/07/28 06:03:41;;;;;;;6.63;2.35;;;21.50;65.60;;;;;;5055837;28;20032;-80
2023/07/28 06:06:08;;;;;;;9.48;2.28;;;21.40;85.20;;;;;;5055707;28;20328;-80
2023/07/28 06:08:35;;;;;;;6.40;2.30;;;21.60;66.00;;;;;;5054590;28;20379;-80
2023/07/28 06:11:07;;;;;;;8.13;2.45;;;21.60;66.00;;;;;;5055626;28;20439;-80
2023/07/28 06:13:33;;;;;;;4.90;2.53;;;21.60;65.90;;;;;;5055391;28;20025;-80
2023/07/28 06:15:59;;;;;;;6.40;2.00;;;21.60;65.80;;;;;;5055313;28;20475;-80
2023/07/28 06:18:25;;;;;;;6.78;2.25;;;21.60;65.80;;;;;;5055614;28;20025;-80
2023/07/28 06:20:51;;;;;;;6.15;2.10;;;21.60;66.10;;;;;;5055323;28;20021;-81
2023/07/28 06:23:17;;;;;;;4.60;2.10;;;21.60;65.90;;;;;;5055360;28;20028;-81
2023/07/28 06:25:45;;;;;;;3.50;1.70;;;21.60;66.00;;;;;;5055627;28;20403;-81
2023/07/28 06:28:12;;;;;;;6.55;2.03;;;21.60;65.90;;;;;;5055096;28;20502;-80
2023/07/28 06:30:39;;;;;;;4.70;1.75;;;21.60;66.00;;;;;;5055059;28;20503;-80
2023/07/28 06:33:06;;;;;;;6.82;2.20;;;21.60;65.90;;;;;;5055283;28;20033;-81
2023/07/28 06:35:33;;;;;;;4.25;2.15;;;21.60;66.00;;;;;;5055187;28;20033;-80
2023/07/28 06:38:00;;;;;;;4.63;2.13;;;21.60;66.70;;;;;;5055156;28;20032;-81
2023/07/28 06:40:26;;;;;;;7.32;2.40;;;21.60;66.00;;;;;;5055130;28;20028;-80
2023/07/28 06:42:52;;;;;;;4.30;1.85;;;21.60;65.90;;;;;;5055009;28;20075;-80
2023/07/28 06:45:19;;;;;;;5.95;2.10;;;21.60;66.00;;;;;;5054971;28;20383;-80
2023/07/28 06:47:45;;;;;;;6.43;2.45;;;21.60;66.00;;;;;;5054985;28;20387;-81
2023/07/28 06:50:11;;;;;;;5.50;2.15;;;21.60;66.00;;;;;;5054753;28;20075;-80
2023/07/28 06:52:37;;;;;;;5.05;1.95;;;21.60;66.00;;;;;;5054605;28;20025;-80
2023/07/28 06:55:04;;;;;;;3.72;1.60;;;21.60;66.10;;;;;;5055043;28;20044;-81
2023/07/28 06:57:31;;;;;;;4.43;1.90;;;21.60;66.10;;;;;;5054522;28;20029;-81
2023/07/28 06:59:57;;;;;;;4.47;1.98;;;21.60;66.10;;;;;;5053965;28;20032;-80
2023/07/28 07:02:23;;;;;;;3.95;1.90;;;21.60;66.10;;;;;;5054261;28;20032;-81
2023/07/28 07:04:49;;;;;;;5.47;2.28;;;21.60;66.00;;;;;;5054415;28;20025;-80
2023/07/28 07:07:15;;;;;;;4.50;2.00;;;21.60;66.00;;;;;;5054321;28;20100;-77
2023/07/28 07:09:41;;;;;;;3.33;1.80;;;21.60;66.60;;;;;;5054330;28;20029;-77
2023/07/28 07:12:08;;;;;;;3.72;1.80;;;21.60;65.90;;;;;;5054351;28;20021;-77
2023/07/28 07:14:34;;;;;;;3.35;1.50;;;21.60;66.00;;;;;;5054040;28;20386;-77
2023/07/28 07:17:00;;;;;;;3.20;1.55;;;21.60;65.80;;;;;;5054115;28;20124;-77
2023/07/28 07:19:27;;;;;;;2.70;1.80;;;21.60;65.80;;;;;;5054063;28;20108;-77
2023/07/28 07:21:53;;;;;;;3.92;1.90;;;21.60;65.70;;;;;;5054466;28;20025;-78
2023/07/28 07:24:19;;;;;;;3.35;1.85;;;21.70;65.90;;;;;;5053889;28;20096;-77
2023/07/28 07:26:45;;;;;;;3.03;1.42;;;21.60;65.80;;;;;;5053995;28;20112;-77
2023/07/28 07:29:10;;;;;;;3.42;1.73;;;21.70;65.80;;;;;;5054091;28;20442;-77
2023/07/28 07:31:36;;;;;;;2.22;1.42;;;21.60;65.80;;;;;;5053939;28;20029;-77
2023/07/28 07:34:04;;;;;;;3.47;2.03;;;21.60;65.80;;;;;;5053925;28;20447;-77
2023/07/28 07:36:30;;;;;;;2.50;1.55;;;21.60;65.80;;;;;;5053664;28;20098;-77
2023/07/28 07:38:56;;;;;;;3.63;1.80;;;21.70;65.80;;;;;;5053746;28;20044;-77
2023/07/28 07:41:22;;;;;;;4.55;1.55;;;21.60;65.70;;;;;;5053685;28;20519;-77
2023/07/28 07:43:49;;;;;;;3.15;1.50;;;21.60;65.70;;;;;;5053994;28;20140;-77
2023/07/28 07:46:15;;;;;;;3.70;1.60;;;21.70;65.70;;;;;;5053757;28;20108;-77
2023/07/28 07:48:42;;;;;;;2.35;1.48;;;21.60;65.90;;;;;;5053551;28;20491;-77
2023/07/28 07:51:08;;;;;;;2.95;1.70;;;21.70;65.80;;;;;;5054003;28;20506;-76
2023/07/28 07:53:36;;;;;;;3.28;1.65;;;21.70;65.80;;;;;;5053481;28;20495;-77
2023/07/28 07:56:03;;;;;;;3.47;1.67;;;21.60;65.80;;;;;;5053287;28;20116;-77
2023/07/28 07:58:28;;;;;;;3.22;1.65;;;21.70;65.80;;;;;;5053479;28;20021;-77
2023/07/28 08:00:55;;;;;;;2.25;1.65;;;21.70;65.80;;;;;;5053465;28;20673;-77
2023/07/28 08:03:21;;;;;;;3.33;1.85;;;21.70;65.80;;;;;;5053445;28;20517;-77
2023/07/28 08:05:47;;;;;;;4.00;1.33;;;21.70;65.80;;;;;;5053489;28;20021;-77
2023/07/28 08:08:16;;;;;;;2.85;1.50;;;21.70;65.80;;;;;;5053154;28;20415;-77
2023/07/28 08:10:43;;;;;;;2.90;1.80;;;21.70;65.80;;;;;;5052997;28;20519;-77
2023/07/28 08:13:08;;;;;;;3.58;1.75;;;21.70;65.80;;;;;;5052927;28;20382;-77
2023/07/28 08:15:34;;;;;;;4.40;1.75;;;21.70;65.80;;;;;;5035060;28;20119;-77
2023/07/28 08:18:00;;;;;;;3.58;1.70;;;21.70;65.80;;;;;;5053098;28;20031;-77
2023/07/28 08:20:25;;;;;;;4.05;1.65;;;21.70;65.80;;;;;;5053475;28;20104;-81
2023/07/28 08:22:51;;;;;;;3.45;1.58;;;21.70;65.80;;;;;;5052991;28;20021;-81
2023/07/28 08:25:17;;;;;;;3.53;1.88;;;21.70;65.70;;;;;;5052975;28;20501;-81
2023/07/28 08:27:42;;;;;;;2.00;1.38;;;21.70;65.80;;;;;;5052856;28;20032;-81
2023/07/28 08:30:09;;;;;;;2.33;1.65;;;21.70;65.80;;;;;;5053078;28;20025;-81
2023/07/28 08:32:35;;;;;;;2.80;1.77;;;21.70;65.70;;;;;;5052723;28;20057;-77
2023/07/28 08:35:01;;;;;;;3.90;1.65;;;21.70;65.70;;;;;;5052522;28;20082;-77
2023/07/28 08:37:28;;;;;;;4.43;1.70;;;21.70;65.80;;;;;;5052739;28;20032;-78
2023/07/28 08:39:54;;;;;;;3.92;1.85;;;21.70;65.80;;;;;;5052477;28;20029;-77
2023/07/28 08:42:23;;;;;;;4.28;2.35;;;21.70;65.90;;;;;;5052563;28;20037;-77
2023/07/28 08:44:52;;;;;;;2.55;1.85;;;21.70;65.90;;;;;;5052475;28;20032;-77
2023/07/28 08:47:18;;;;;;;2.42;1.73;;;21.70;65.80;;;;;;5052981;28;20406;-77
2023/07/28 08:49:44;;;;;;;2.35;1.88;;;21.70;65.80;;;;;;5052381;28;20013;-77
2023/07/28 08:52:10;;;;;;;4.68;2.40;;;21.70;65.90;;;;;;5052418;28;20053;-77
2023/07/28 08:54:36;;;;;;;1.95;1.73;;;21.80;65.90;;;;;;5052514;28;20025;-77
2023/07/28 08:57:02;;;;;;;4.03;2.13;;;21.80;66.00;;;;;;5052383;28;20039;-77
2023/07/28 08:59:29;;;;;;;3.72;1.88;;;21.80;65.80;;;;;;5052523;28;20025;-78
2023/07/28 09:02:01;;;;;;;4.78;2.40;;;21.80;65.90;;;;;;5052614;28;20524;-78
2023/07/28 09:04:27;;;;;;;4.38;2.00;;;21.80;65.80;;;;;;5052503;28;20032;-78
2023/07/28 09:06:53;;;;;;;2.90;2.20;;;21.80;65.90;;;;;;5052444;28;20036;-78
2023/07/28 09:09:23;;;;;;;2.60;2.30;;;21.80;65.90;;;;;;5052482;28;20029;-78
2023/07/28 09:11:51;;;;;;;2.40;1.80;;;21.80;65.90;;;;;;5051057;28;20109;-76
2023/07/28 09:14:18;;;;;;;3.10;2.33;;;21.80;66.60;;;;;;5052018;28;20468;-76
2023/07/28 09:16:46;;;;;;;2.60;2.20;;;21.80;65.90;;;;;;5052435;28;20036;-77
2023/07/28 09:19:13;;;;;;;2.75;2.22;;;21.80;65.90;;;;;;5052197;28;20025;-77
2023/07/28 09:21:40;;;;;;;3.70;2.45;;;21.80;65.90;;;;;;5052020;28;20021;-77
2023/07/28 09:24:13;;;;;;;6.53;2.50;;;21.80;66.00;;;;;;5051717;28;20040;-77
2023/07/28 09:26:41;;;;;;;2.45;2.20;;;21.80;66.10;;;;;;5052209;28;20419;-77
2023/07/28 09:29:15;;;;;;;4.15;2.53;;;21.80;66.10;;;;;;5052231;28;20032;-76
2023/07/28 09:31:42;;;;;;;3.53;2.53;;;21.80;66.10;;;;;;5052033;28;20086;-77
2023/07/28 09:34:11;;;;;;;2.70;1.95;;;21.90;66.00;;;;;;5051998;28;20056;-77
2023/07/28 09:36:40;;;;;;;4.03;2.33;;;21.90;65.90;;;;;;5052017;28;20519;-77
2023/07/28 09:39:24;;;;;;;4.38;2.60;;;21.90;66.00;;;;;;5051832;28;20358;-77
2023/07/28 09:41:50;;;;;;;3.72;2.08;;;21.90;65.90;;;;;;5052208;28;20025;-77
2023/07/28 09:44:16;;;;;;;3.28;2.40;;;21.90;65.80;;;;;;5051417;28;20024;-76
2023/07/28 09:46:56;;;;;;;3.65;2.58;;;21.90;65.70;;;;;;5052118;28;20197;-77
2023/07/28 09:49:33;;;;;;;;;;;22.00;65.90;;;;;;5052553;28;20105;-76
2023/07/28 09:52:05;;;;;;;4.20;2.70;;;22.00;65.80;;;;;;5051788;28;19905;-77
2023/07/28 09:54:34;;;;;;;2.92;2.35;;;22.00;65.70;;;;;;5052194;28;20069;-77
2023/07/28 09:57:00;;;;;;;3.08;2.22;;;22.00;65.70;;;;;;5051710;28;20561;-80
2023/07/28 09:59:32;;;;;;;3.58;2.25;;;22.00;65.70;;;;;;5051859;28;20078;-81
2023/07/28 10:01:59;;;;;;;2.53;2.33;;;22.10;65.60;;;;;;5051583;28;20025;-80
2023/07/28 10:04:24;;;;;;;2.83;2.42;;;22.10;65.50;;;;;;5051730;28;20108;-81
2023/07/28 10:06:56;;;;;;;3.17;2.60;;;22.10;65.30;;;;;;5051734;28;20065;-81
2023/07/28 10:09:26;;;;;;;4.18;2.55;;;22.20;65.40;;;;;;5051735;28;20055;-81
2023/07/28 10:11:52;;;;;;;4.63;2.70;;;22.20;65.50;;;;;;5051629;28;20021;-81
2023/07/28 10:14:34;;;;;;;2.95;2.17;;;22.20;65.30;;;;;;5052028;28;20049;-81
2023/07/28 10:17:01;;;;;;;3.10;2.20;;;22.30;65.30;;;;;;5051720;28;20082;-81
2023/07/28 10:19:28;;;;;;;4.22;2.65;;;22.30;65.30;;;;;;5051568;28;20025;-81
2023/07/28 10:22:14;;;;;;;2.85;2.60;;;22.30;65.40;;;;;;5050392;28;20388;-81
2023/07/28 10:25:01;;;;;;;4.35;2.55;;;22.30;65.50;;;;;;5051453;28;20029;-80
2023/07/28 10:27:38;;;;;;;4.18;2.70;;;22.30;65.30;;;;;;5051586;28;20074;-80
2023/07/28 10:30:14;;;;;;;4.70;2.80;;;22.20;84.80;;;;;;5051491;28;20037;-80
2023/07/28 10:32:50;;;;;;;2.97;2.67;;;22.40;65.40;;;;;;5051485;28;20024;-81
2023/07/28 10:35:21;;;;;;;3.00;2.70;;;22.40;65.40;;;;;;5053446;28;20099;-81
2023/07/28 10:37:47;;;;;;;2.97;2.63;;;22.40;65.60;;;;;;5053729;28;20503;-81
2023/07/28 10:40:35;;;;;;;3.42;3.08;;;22.50;66.00;;;;;;5054970;28;20033;-81
2023/07/28 10:43:02;;;;;;;4.00;3.33;;;22.40;65.30;;;;;;5055586;28;20021;-80
2023/07/28 10:45:30;;;;;;;3.80;3.47;;;22.50;65.80;;;;;;5054839;28;20032;-81
2023/07/28 10:47:59;;;;;;;3.28;2.97;;;22.50;65.70;;;;;;5054960;28;20061;-80
2023/07/28 10:50:30;;;;;;;3.63;3.00;;;22.50;65.60;;;;;;5053487;28;20506;-80
2023/07/28 10:52:56;;;;;;;3.40;3.10;;;22.50;65.40;;;;;;5054802;28;20029;-80
2023/07/28 10:55:24;;;;;;;3.22;2.90;;;22.50;65.50;;;;;;5054717;28;20036;-80
2023/07/28 10:57:51;;;;;;;3.45;3.10;;;22.50;65.50;;;;;;5054670;28;20021;-80
2023/07/28 11:00:18;;;;;;;3.83;3.50;;;22.50;65.60;;;;;;5054620;28;20052;-81
2023/07/28 11:02:49;;;;;;;6.40;4.28;;;22.50;65.40;;;;;;5054703;28;20408;-81
2023/07/28 11:05:25;;;;;;;4.10;3.50;;;22.50;65.50;;;;;;5054510;28;20017;-81
2023/07/28 11:07:54;;;;;;;4.88;3.92;;;22.60;65.70;;;;;;5053228;28;20033;-80
2023/07/28 11:10:20;;;;;;;4.15;3.67;;;22.60;65.80;;;;;;5053875;28;20025;-80
2023/07/28 11:12:49;;;;;;;3.50;3.20;;;22.60;65.60;;;;;;5054465;28;20029;-80
2023/07/28 11:15:16;;;;;;;4.28;3.88;;;22.70;65.60;;;;;;5054026;28;20049;-81
2023/07/28 11:17:46;;;;;;;5.35;4.15;;;22.70;65.70;;;;;;5054373;28;20040;-80
2023/07/28 11:20:28;;;;;;;4.60;4.10;;;22.70;65.60;;;;;;5054456;28;20040;-80
2023/07/28 11:22:56;;;;;;;4.93;3.92;;;22.70;65.80;;;;;;5054413;28;20383;-80
2023/07/28 11:25:23;;;;;;;4.43;4.03;;;22.70;65.90;;;;;;5054321;28;20083;-80
2023/07/28 11:27:49;;;;;;;4.05;3.60;;;22.70;65.50;;;;;;5054210;28;20104;-81
2023/07/28 11:30:17;;;;;;;4.10;3.80;;;22.80;64.90;;;;;;5054103;28;20361;-80
2023/07/28 11:32:44;;;;;;;6.00;4.15;;;22.80;65.40;;;;;;5054130;28;20029;-80
2023/07/28 11:35:12;;;;;;;5.22;4.43;;;22.80;65.40;;;;;;5054236;28;20044;-80
2023/07/28 11:37:40;;;;;;;4.20;3.90;;;22.90;65.50;;;;;;5054044;28;20021;-80
2023/07/28 11:40:07;;;;;;;4.28;3.88;;;22.90;65.40;;;;;;5054413;28;20056;-80
2023/07/28 11:42:35;;;;;;;5.15;3.65;;;23.00;65.20;;;;;;5053800;28;20049;-78
2023/07/28 11:45:05;;;;;;;5.03;3.83;;;24.20;65.50;;;;;;5053450;28;20029;-80
2023/07/28 11:47:31;;;;;;;4.20;3.80;;;23.20;64.80;;;;;;5053732;28;20021;-81
2023/07/28 11:49:58;;;;;;;4.85;4.45;;;23.30;83.90;;;;;;5054041;28;20025;-80
2023/07/28 11:52:35;;;;;;;4.00;3.70;;;23.30;64.50;;;;;;5053760;28;20032;-80
2023/07/28 11:55:04;;;;;;;4.05;3.75;;;23.30;64.40;;;;;;5053544;28;20032;-80
2023/07/28 11:57:33;;;;;;;4.68;4.07;;;23.30;64.40;;;;;;5053536;28;20032;-80
2023/07/28 12:00:04;;;;;;;4.97;4.35;;;23.50;64.30;;;;;;5053545;28;20396;-80
2023/07/28 12:02:33;;;;;;;4.40;4.00;;;23.50;64.20;;;;;;5053489;28;20025;-80
2023/07/28 12:04:59;;;;;;;5.60;3.70;;;23.50;64.10;;;;;;5052290;28;20461;-80
2023/07/28 12:07:32;;;;;;;4.30;3.90;;;23.60;63.80;;;;;;5053946;28;20414;-79
2023/07/28 12:10:05;;;;;;;4.68;3.88;;;23.70;63.50;;;;;;5053417;28;20060;-80
2023/07/28 12:12:38;;;;;;;4.75;4.35;;;23.80;63.60;;;;;;5053525;28;20017;-79
2023/07/28 12:15:18;;;;;;;4.18;3.85;;;23.80;63.30;;;;;;5051811;28;20519;-79
2023/07/28 12:18:01;;;;;;;5.47;4.25;;;23.80;63.50;;;;;;5053191;28;20029;-80
2023/07/28 12:20:26;;;;;;;4.55;3.50;;;23.80;64.00;;;;;;5053166;28;20110;-77
2023/07/28 12:22:52;;;;;;;5.90;4.60;;;23.80;63.60;;;;;;5053020;28;20083;-77
2023/07/28 12:25:19;;;;;;;4.88;4.47;;;23.80;64.00;;;;;;5053015;28;20027;-77
2023/07/28 12:27:45;;;;;;;4.93;4.05;;;23.80;64.20;;;;;;5052993;28;20021;-77
2023/07/28 12:30:11;;;;;;;4.43;4.13;;;23.90;64.00;;;;;;5053264;28;20023;-77
2023/07/28 12:32:36;;;;;;;4.80;4.40;;;24.00;63.80;;;;;;5052951;28;20033;-77
2023/07/28 12:35:02;;;;;;;4.43;4.03;;;24.00;63.80;;;;;;5053369;28;20021;-78
2023/07/28 12:37:28;;;;;;;4.68;4.28;;;24.10;63.50;;;;;;5051660;28;20094;-78
2023/07/28 12:39:54;;;;;;;4.72;4.20;;;24.10;63.80;;;;;;5052732;28;20033;-77
2023/07/28 12:42:20;;;;;;;4.65;4.25;;;24.00;63.70;;;;;;5052840;28;20080;-76
2023/07/28 12:44:45;;;;;;;5.15;4.20;;;24.00;64.00;;;;;;5052592;28;20479;-77
2023/07/28 12:47:11;;;;;;;4.90;4.50;;;24.00;64.00;;;;;;5052760;28;20023;-77
2023/07/28 12:49:37;;;;;;;4.15;3.85;;;24.00;64.20;;;;;;5052576;28;20025;-77